Time;durP1;ratioP1;P1;durP2;ratioP2;P2;SDS_P1;SDS_P2;PMS_P1;PMS_P2;Temp;Humidity;BMP_temperature;BMP_pressure;BME280_temperature;BME280_humidity;BME280_pressure;Samples;Min_cycle;Max_cycle;Signal;HPM_P1;HPM_P2
2023/07/21 00:03:41;;;;;;;2.47;1.80;;;;;;;20.00;52.61;98684.03;7194998;40;20382;31
2023/07/21 00:09:15;;;;;;;2.22;1.83;;;;;;;19.96;52.29;98680.13;7171723;40;20800;31
2023/07/21 00:19:56;;;;;;;3.22;1.95;;;;;;;20.00;52.31;98670.38;7240971;40;20461;31
2023/07/21 00:25:16;;;;;;;2.60;1.90;;;;;;;20.00;52.93;98675.84;7211877;40;20258;31
2023/07/21 00:30:48;;;;;;;2.67;1.60;;;;;;;19.79;53.08;98666.31;7216643;40;20280;31
2023/07/21 00:36:24;;;;;;;2.00;1.80;;;;;;;19.60;53.45;98660.16;7255062;40;20328;31
2023/07/21 00:41:56;;;;;;;3.57;1.90;;;;;;;19.52;53.74;98663.25;7218843;40;20281;31
2023/07/21 00:47:28;;;;;;;2.13;1.90;;;;;;;19.66;52.68;98653.72;7238898;40;20285;31
2023/07/21 00:58:09;;;;;;;4.90;2.07;;;;;;;19.66;53.37;98653.72;7230890;40;20277;31
2023/07/21 01:08:47;;;;;;;3.05;2.15;;;;;;;19.64;52.49;98653.16;7239924;40;20367;31
2023/07/21 01:19:24;;;;;;;3.68;1.96;;;;;;;19.79;50.95;98639.81;7304449;39;20633;31
2023/07/21 01:30:06;;;;;;;2.10;1.90;;;;;;;19.79;52.83;98636.22;7265966;40;20303;31
2023/07/21 01:35:40;;;;;;;3.67;2.03;;;;;;;19.71;51.41;98636.59;7196778;40;20349;31
2023/07/21 01:41:14;;;;;;;3.17;2.10;;;;;;;19.64;52.67;98636.75;7179456;40;21947;31
2023/07/21 01:46:48;;;;;;;2.10;1.90;;;;;;;19.56;52.80;98628.06;7218465;40;22218;31
2023/07/21 01:52:06;;;;;;;3.67;2.05;;;;;;;19.57;52.79;98627.00;7164799;40;20393;31
2023/07/21 01:57:41;;;;;;;2.23;1.90;;;;;;;19.66;52.18;98625.53;7164120;40;20278;31
2023/07/21 02:03:17;;;;;;;4.40;2.00;;;;;;;19.62;51.87;98622.47;7173654;40;20258;31
2023/07/21 02:08:52;;;;;;;2.30;1.90;;;;;;;19.68;51.93;98615.22;7194193;40;20250;31
2023/07/21 02:14:27;;;;;;;2.33;1.83;;;;;;;19.73;52.05;98607.13;7163175;40;20285;31
2023/07/21 02:20:21;;;;;;;3.70;2.00;;;;;;;19.60;53.34;98608.22;7216666;40;20329;31
2023/07/21 02:25:57;;;;;;;2.10;1.90;;;;;;;19.60;52.31;98602.75;7173827;40;20313;31
2023/07/21 02:31:52;;;;;;;3.50;2.00;;;;;;;19.65;52.86;98599.28;7158738;40;20247;31
2023/07/21 02:37:23;;;;;;;3.95;2.37;;;;;;;19.74;51.83;98595.12;7159702;40;20332;31
2023/07/21 02:43:18;;;;;;;1.87;1.60;;;;;;;19.86;51.84;98579.50;7157188;40;21829;31
2023/07/21 02:48:54;;;;;;;2.65;1.80;;;;;;;19.96;52.04;98584.37;7204639;40;20319;31
2023/07/21 02:54:49;;;;;;;5.12;2.08;;;;;;;20.01;52.58;98588.03;7271534;40;20423;31
2023/07/21 03:00:22;;;;;;;3.10;1.60;;;;;;;20.00;51.11;98585.56;7198095;40;20345;31
2023/07/21 03:05:56;;;;;;;2.03;1.80;;;;;;;20.02;51.47;98575.19;7264454;40;20336;31
2023/07/21 03:11:49;;;;;;;2.20;1.80;;;;;;;20.07;51.49;98583.50;7211883;40;21917;31
2023/07/21 03:17:24;;;;;;;3.15;2.00;;;;;;;20.07;51.70;98576.13;7234235;40;20796;31
2023/07/21 03:23:18;;;;;;;3.00;1.70;;;;;;;20.14;51.88;98579.53;7242655;40;20411;31
2023/07/21 03:29:13;;;;;;;2.67;2.10;;;;;;;20.21;52.30;98587.62;7192502;40;20238;31
2023/07/21 03:34:52;;;;;;;4.00;1.80;;;;;;;20.13;50.88;98593.47;7217429;40;20258;31
2023/07/21 03:40:23;;;;;;;3.47;1.83;;;;;;;20.08;51.59;98596.13;7227271;40;20269;31
2023/07/21 03:46:16;;;;;;;3.47;1.87;;;;;;;20.09;48.96;98590.41;7188959;40;20321;31
2023/07/21 03:51:53;;;;;;;5.30;2.00;;;;;;;20.10;48.70;98591.22;7214512;40;20300;31
2023/07/21 03:57:47;;;;;;;2.20;1.70;;;;;;;20.01;50.06;98588.03;7242344;40;20245;31
2023/07/21 04:03:41;;;;;;;2.65;1.85;;;;;;;20.08;50.90;98587.91;7277582;39;20383;31
2023/07/21 04:09:15;;;;;;;2.35;1.80;;;;;;;20.07;50.89;98586.22;7271501;40;20337;31
2023/07/21 04:14:50;;;;;;;3.17;1.80;;;;;;;20.06;49.81;98590.03;7231943;40;20355;31
2023/07/21 04:20:44;;;;;;;2.70;1.93;;;;;;;19.97;51.46;98591.47;7213083;40;20364;31
2023/07/21 04:26:20;;;;;;;2.90;2.03;;;;;;;19.96;52.91;98587.94;7252131;40;20313;31
2023/07/21 04:32:16;;;;;;;3.40;2.00;;;;;;;20.05;52.22;98586.47;7236035;40;20261;31
2023/07/21 04:38:09;;;;;;;2.50;1.80;;;;;;;20.14;50.27;98578.72;7286254;39;20279;31
2023/07/21 04:43:46;;;;;;;2.67;1.80;;;;;;;20.13;49.71;98586.09;7330614;39;20279;31
2023/07/21 04:49:43;;;;;;;2.40;2.00;;;;;;;20.35;50.43;98583.56;7297225;39;20257;31
2023/07/21 04:55:01;;;;;;;2.70;1.77;;;;;;;20.51;49.75;98592.88;7282450;40;20268;31
2023/07/21 05:00:37;;;;;;;3.50;1.70;;;;;;;20.57;50.65;98581.78;7203963;40;20278;31
2023/07/21 05:11:35;;;;;;;3.47;2.15;;;;;;;20.62;50.60;98587.34;7264162;40;20398;31
2023/07/21 05:17:11;;;;;;;4.15;1.70;;;;;;;20.61;50.84;98593.91;7251143;40;20657;31
2023/07/21 05:23:05;;;;;;;6.13;2.10;;;;;;;20.69;51.15;98596.25;7251486;40;20249;31
2023/07/21 05:28:59;;;;;;;2.28;1.90;;;;;;;20.70;51.56;98591.59;7234147;40;20253;31
2023/07/21 05:34:33;;;;;;;2.60;2.00;;;;;;;20.80;51.77;98590.97;7238053;40;20249;31
2023/07/21 05:40:27;;;;;;;3.53;2.10;;;;;;;20.91;50.89;98599.09;7236226;40;20250;31
2023/07/21 05:45:48;;;;;;;2.50;1.77;;;;;;;21.04;50.07;98604.25;7233911;40;20343;31
2023/07/21 05:51:43;;;;;;;2.37;1.70;;;;;;;21.10;49.85;98592.31;7254407;39;20374;31
2023/07/21 05:57:14;;;;;;;2.95;1.95;;;;;;;21.04;50.13;98596.03;7206842;40;20257;31
2023/07/21 06:03:04;;;;;;;4.30;1.92;;;;;;;21.11;50.76;98607.66;7214606;40;20423;31
2023/07/21 06:08:25;;;;;;;2.67;1.90;;;;;;;21.18;52.02;98610.28;6951284;40;21508;31
2023/07/21 06:14:17;;;;;;;2.00;1.60;;;;;;;21.27;51.55;98618.91;7231585;40;20268;31
2023/07/21 06:20:12;;;;;;;3.45;2.30;;;;;;;21.33;51.06;98618.72;7224629;40;20265;31
2023/07/21 06:25:45;;;;;;;2.55;1.80;;;;;;;21.39;50.42;98617.75;7233138;40;20560;31
2023/07/21 06:31:39;;;;;;;2.47;1.93;;;;;;;21.45;50.86;98618.66;7215723;40;20334;31
2023/07/21 06:37:31;;;;;;;5.55;2.35;;;;;;;21.57;49.96;98619.38;7227908;40;20466;31
2023/07/21 06:43:06;;;;;;;4.05;2.37;;;;;;;21.75;49.67;98616.34;7191806;40;20316;31
2023/07/21 06:54:08;;;;;;;4.20;2.12;;;;;;;21.97;48.27;98611.75;7292593;39;20270;31
2023/07/21 06:59:44;;;;;;;2.93;2.40;;;;;;;22.02;48.42;98611.84;7260678;40;20279;31
2023/07/21 07:05:41;;;;;;;3.25;2.10;;;;;;;22.09;48.17;98608.88;7183623;40;20359;31
2023/07/21 07:11:34;;;;;;;3.20;2.03;;;;;;;22.17;48.03;98608.44;7257007;40;20253;31
2023/07/21 07:17:10;;;;;;;3.60;2.10;;;;;;;22.32;47.70;98616.88;7212956;40;20246;31
2023/07/21 07:22:27;;;;;;;2.42;1.90;;;;;;;22.19;47.46;98630.16;7188155;40;20491;31
2023/07/21 07:28:23;;;;;;;3.70;1.70;;;;;;;22.18;46.29;98631.22;7205359;40;20341;31
2023/07/21 07:33:59;;;;;;;3.80;1.90;;;;;;;22.33;45.91;98626.78;7228679;40;20264;31
2023/07/21 07:39:53;;;;;;;3.12;1.90;;;;;;;22.25;45.01;98642.84;7218982;40;20303;31
2023/07/21 07:45:14;;;;;;;3.95;2.12;;;;;;;22.48;44.88;98640.66;7250986;39;20237;31
2023/07/21 07:51:08;;;;;;;2.33;1.80;;;;;;;23.16;44.79;98633.72;7254520;40;20261;31
2023/07/21 07:57:02;;;;;;;3.60;1.70;;;;;;;23.65;43.68;98642.63;7280688;40;20331;31
2023/07/21 08:02:36;;;;;;;3.85;2.00;;;;;;;23.51;43.20;98640.62;7244072;40;20283;31
2023/07/21 08:07:53;;;;;;;2.00;1.80;;;;;;;23.62;44.21;98648.69;7246676;40;20265;31
2023/07/21 08:13:47;;;;;;;1.80;1.50;;;;;;;23.65;42.55;98647.34;7236761;40;20339;31
2023/07/21 08:19:23;;;;;;;1.85;1.60;;;;;;;23.89;42.52;98633.97;7213221;40;20237;31
2023/07/21 08:25:17;;;;;;;2.85;1.80;;;;;;;23.81;41.55;98640.81;7188090;40;20246;31
2023/07/21 08:30:38;;;;;;;2.95;2.00;;;;;;;23.97;42.05;98639.81;7239489;40;20264;31
2023/07/21 08:36:31;;;;;;;3.53;1.90;;;;;;;24.29;42.97;98636.97;7267055;40;20514;31
2023/07/21 08:42:07;;;;;;;2.40;1.80;;;;;;;24.60;41.24;98652.53;7255626;40;20267;31
2023/07/21 08:48:06;;;;;;;2.33;1.70;;;;;;;24.51;41.10;98645.06;7204318;40;20269;31
2023/07/21 08:53:37;;;;;;;3.35;1.85;;;;;;;24.64;42.22;98645.37;7233497;40;20399;31
2023/07/21 08:59:30;;;;;;;2.10;1.90;;;;;;;24.50;40.96;98644.22;7283370;39;20283;31
2023/07/21 09:05:06;;;;;;;2.15;1.80;;;;;;;24.35;42.18;98648.88;7212466;40;20293;31
2023/07/21 09:16:05;;;;;;;2.05;1.70;;;;;;;24.40;40.74;98662.63;7287759;39;21301;31
2023/07/21 09:21:57;;;;;;;2.92;2.00;;;;;;;24.34;39.79;98653.53;7238345;40;20315;31
2023/07/21 09:27:35;;;;;;;2.16;1.50;;;;;;;24.19;40.96;98657.03;7226963;40;20261;31
2023/07/21 09:33:26;;;;;;;2.80;1.70;;;;;;;24.24;40.88;98654.31;7275475;40;20348;31
2023/07/21 09:39:03;;;;;;;1.83;1.62;;;;;;;24.20;41.93;98664.22;7236804;40;20327;31
2023/07/21 09:44:57;;;;;;;2.58;1.90;;;;;;;23.98;40.95;98658.00;7245503;40;22270;31
2023/07/21 09:50:32;;;;;;;2.10;1.60;;;;;;;23.88;40.89;98654.34;7206754;40;20328;31
2023/07/21 09:56:25;;;;;;;1.90;1.70;;;;;;;23.67;41.35;98662.47;7196959;40;20320;31
2023/07/21 10:02:01;;;;;;;2.50;1.50;;;;;;;23.61;42.65;98665.44;7209243;40;20270;31
2023/07/21 10:07:56;;;;;;;2.12;1.83;;;;;;;23.51;43.17;98668.13;7194603;40;20288;31
2023/07/21 10:13:30;;;;;;;1.95;1.60;;;;;;;23.58;42.62;98677.81;7241374;40;20246;31
2023/07/21 10:19:25;;;;;;;2.37;1.50;;;;;;;23.53;42.25;98676.94;7154769;40;20431;31
2023/07/21 10:25:02;;;;;;;1.85;1.70;;;;;;;23.47;42.62;98678.00;7144225;40;20560;31
2023/07/21 10:30:55;;;;;;;2.05;1.62;;;;;;;23.53;43.30;98693.44;7173673;40;20279;31
2023/07/21 10:36:30;;;;;;;3.10;1.83;;;;;;;23.59;42.69;98687.75;7219629;40;20242;31
2023/07/21 10:42:23;;;;;;;2.85;1.70;;;;;;;23.70;43.55;98691.38;7233055;40;20265;31
2023/07/21 10:53:05;;;;;;;2.50;1.70;;;;;;;23.76;42.37;98687.59;7303751;39;21210;31
2023/07/21 10:58:27;;;;;;;7.55;1.90;;;;;;;23.67;42.82;98694.66;7233519;40;20395;31
2023/07/21 11:04:18;;;;;;;1.80;1.50;;;;;;;23.62;43.11;98697.37;7258391;40;20279;31
2023/07/21 11:10:00;;;;;;;2.10;1.70;;;;;;;23.48;43.49;98679.66;7271143;40;20346;31
2023/07/21 11:15:54;;;;;;;1.70;1.60;;;;;;;23.45;43.99;98699.44;7275049;40;20237;31
2023/07/21 11:21:29;;;;;;;2.72;1.90;;;;;;;23.28;43.50;98692.13;7244359;40;20276;31
2023/07/21 11:27:06;;;;;;;4.18;1.90;;;;;;;23.33;43.06;98694.09;7235686;40;20310;31
2023/07/21 11:32:38;;;;;;;3.45;1.50;;;;;;;23.29;43.43;98693.78;7223113;40;20351;31
2023/07/21 11:38:13;;;;;;;2.92;1.50;;;;;;;23.39;43.44;98683.97;7233813;40;20246;31
2023/07/21 11:43:49;;;;;;;3.03;1.80;;;;;;;23.36;43.40;98686.12;7225761;40;20253;31
2023/07/21 11:49:25;;;;;;;2.70;1.90;;;;;;;23.35;42.94;98703.72;7226340;40;20268;31
2023/07/21 11:54:56;;;;;;;3.28;1.80;;;;;;;23.29;43.42;98701.19;7233059;40;20284;31
2023/07/21 12:05:33;;;;;;;2.30;1.80;;;;;;;22.91;44.62;98718.66;7184495;40;21041;31
2023/07/21 12:15:54;;;;;;;3.80;1.98;;;;;;;22.51;45.68;98731.91;7222335;40;21159;31
2023/07/21 12:21:27;;;;;;;4.37;1.95;;;;;;;22.46;46.35;98739.00;7254141;40;20287;31
2023/07/21 12:27:02;;;;;;;2.60;1.77;;;;;;;22.50;46.35;98719.25;7257998;40;20252;31
2023/07/21 12:32:34;;;;;;;2.45;1.85;;;;;;;22.73;45.15;98722.56;7236879;40;20272;31
2023/07/21 12:43:14;;;;;;;2.83;1.70;;;;;;;22.68;45.71;98730.75;7236011;40;20552;31
2023/07/21 12:48:34;;;;;;;4.05;1.65;;;;;;;22.68;46.03;98729.94;7262660;40;20253;31
2023/07/21 12:53:51;;;;;;;2.60;1.90;;;;;;;22.70;46.32;98717.59;7288763;39;21220;31
2023/07/21 12:59:27;;;;;;;2.20;1.52;;;;;;;22.78;46.83;98733.63;7255664;40;20398;31
2023/07/21 13:04:48;;;;;;;2.78;1.70;;;;;;;22.89;47.00;98723.59;7242674;40;20280;31
2023/07/21 13:10:22;;;;;;;2.22;1.90;;;;;;;22.80;47.45;98727.91;7032051;40;20307;31
2023/07/21 13:15:58;;;;;;;5.70;2.10;;;;;;;22.72;47.95;98739.34;7207111;40;21725;31
2023/07/21 13:21:18;;;;;;;2.67;2.20;;;;;;;22.66;48.37;98737.56;7207335;40;20392;31
2023/07/21 13:26:50;;;;;;;2.95;2.03;;;;;;;22.73;48.10;98739.06;7233967;40;20253;31
2023/07/21 13:32:26;;;;;;;3.90;2.28;;;;;;;22.85;48.36;98739.78;7203463;40;20289;31
2023/07/21 13:38:01;;;;;;;4.87;2.12;;;;;;;22.85;48.61;98748.03;7214526;40;20364;31
2023/07/21 13:43:36;;;;;;;3.10;2.08;;;;;;;22.86;48.62;98759.88;7175079;40;20320;31
2023/07/21 13:49:09;;;;;;;4.83;2.60;;;;;;;22.92;48.72;98761.56;7244316;40;20542;31
2023/07/21 13:54:26;;;;;;;4.28;2.25;;;;;;;22.88;48.42;98763.16;7217014;40;20262;31
2023/07/21 14:00:01;;;;;;;3.67;2.15;;;;;;;22.81;48.35;98754.31;7212620;40;20280;31
2023/07/21 14:05:37;;;;;;;5.15;2.10;;;;;;;22.76;48.57;98760.56;7217417;40;20321;31
2023/07/21 14:11:12;;;;;;;2.90;2.10;;;;;;;22.69;48.11;98770.91;7215280;40;20264;31
2023/07/21 14:16:44;;;;;;;3.64;2.18;;;;;;;22.74;48.13;98770.97;7164639;40;20270;31
2023/07/21 14:22:18;;;;;;;2.72;2.00;;;;;;;22.80;48.02;98763.63;7223364;40;20352;31
2023/07/21 14:27:53;;;;;;;4.20;1.98;;;;;;;22.93;48.22;98765.97;7216608;40;20368;31
2023/07/21 14:33:28;;;;;;;3.53;2.00;;;;;;;23.08;48.36;98749.66;7218177;40;20241;31
2023/07/21 14:39:04;;;;;;;3.95;2.05;;;;;;;22.90;47.78;98752.75;7201685;40;20252;31
2023/07/21 14:44:25;;;;;;;2.78;1.85;;;;;;;23.15;47.15;98761.28;7215102;40;20262;31
2023/07/21 14:49:45;;;;;;;4.45;2.10;;;;;;;22.96;47.00;98753.63;7192340;40;20258;31
2023/07/21 14:55:19;;;;;;;2.42;1.80;;;;;;;22.98;47.63;98746.81;7206739;40;20273;31
2023/07/21 15:05:55;;;;;;;2.62;1.85;;;;;;;23.58;45.90;98751.28;7231996;40;21244;31
2023/07/21 15:16:31;;;;;;;4.80;1.90;;;;;;;23.86;44.22;98748.22;7224165;40;21139;31
2023/07/21 15:21:52;;;;;;;3.15;1.50;;;;;;;24.06;44.04;98753.88;7194976;40;20455;31
2023/07/21 15:27:26;;;;;;;7.30;1.90;;;;;;;24.26;44.33;98749.63;7228259;40;20315;31
2023/07/21 15:33:02;;;;;;;5.72;1.74;;;;;;;24.40;44.07;98753.56;7233224;40;20433;31
2023/07/21 15:38:23;;;;;;;1.95;1.65;;;;;;;24.65;43.47;98759.22;7228875;40;20253;31
2023/07/21 15:43:58;;;;;;;1.90;1.70;;;;;;;24.56;42.21;98758.91;7293805;39;20434;31
2023/07/21 15:49:28;;;;;;;2.22;1.55;;;;;;;24.70;42.10;98756.50;7214313;40;20288;31
2023/07/21 16:00:13;;;;;;;2.00;1.60;;;;;;;24.68;42.34;98750.41;7178255;40;21074;31
2023/07/21 16:10:45;;;;;;;2.10;1.60;;;;;;;24.51;41.45;98749.78;7245836;40;20279;31
2023/07/21 16:16:17;;;;;;;2.00;1.77;;;;;;;24.74;41.28;98752.09;7272512;40;20256;31
2023/07/21 16:21:53;;;;;;;1.75;1.50;;;;;;;24.66;39.40;98753.44;7238317;40;20250;31
2023/07/21 16:27:27;;;;;;;2.10;1.62;;;;;;;24.72;40.44;98757.03;7155724;40;20637;31
2023/07/21 16:37:53;;;;;;;3.60;1.70;;;;;;;24.85;39.61;98759.31;7140400;40;21151;31
2023/07/21 16:43:26;;;;;;;2.18;1.60;;;;;;;24.81;39.93;98766.47;7196281;40;20266;31
2023/07/21 16:48:46;;;;;;;1.70;1.60;;;;;;;24.72;39.93;98757.03;7242275;40;20272;31
2023/07/21 16:54:06;;;;;;;2.90;2.00;;;;;;;24.76;38.60;98757.31;7253388;40;20610;31
2023/07/21 16:59:42;;;;;;;2.20;1.50;;;;;;;24.52;39.55;98754.19;7220356;40;20530;31
2023/07/21 17:05:14;;;;;;;3.90;1.58;;;;;;;24.37;38.49;98770.62;7211463;40;20270;31
2023/07/21 17:15:55;;;;;;;2.00;1.80;;;;;;;24.03;38.38;98765.44;7191274;40;20277;31
2023/07/21 17:26:16;;;;;;;1.73;1.40;;;;;;;23.89;39.33;98766.97;7237823;40;20289;31
2023/07/21 17:36:54;;;;;;;1.90;1.60;;;;;;;23.82;40.10;98763.63;7235056;39;21348;31
2023/07/21 17:42:14;;;;;;;2.97;1.55;;;;;;;23.81;39.02;98770.22;7273369;40;20390;31
2023/07/21 17:47:34;;;;;;;1.80;1.50;;;;;;;23.66;39.16;98770.06;7281045;40;20260;31
2023/07/21 17:53:10;;;;;;;1.90;1.60;;;;;;;23.55;39.42;98773.81;7253841;40;20261;31
2023/07/21 17:58:30;;;;;;;4.12;1.85;;;;;;;23.52;39.92;98779.84;7184521;40;20254;31
2023/07/21 18:03:53;;;;;;;1.77;1.52;;;;;;;23.46;40.75;98781.72;7209324;40;20249;31
2023/07/21 18:09:27;;;;;;;2.60;1.60;;;;;;;23.42;40.48;98787.97;7253073;40;20256;31
2023/07/21 18:14:47;;;;;;;1.65;1.55;;;;;;;23.32;40.12;98792.28;7221909;40;20253;31
2023/07/21 18:20:21;;;;;;;2.24;1.60;;;;;;;23.21;40.39;98787.75;7248754;40;20280;31
2023/07/21 18:26:02;;;;;;;2.03;1.50;;;;;;;23.16;41.24;98795.13;7253719;40;20309;31
2023/07/21 18:31:34;;;;;;;2.37;1.80;;;;;;;23.08;41.19;98799.13;7201286;40;20325;31
2023/07/21 18:36:51;;;;;;;3.90;1.67;;;;;;;23.04;41.34;98806.25;7210743;40;20443;31
2023/07/21 18:47:29;;;;;;;2.03;1.70;;;;;;;22.93;42.14;98820.97;7243398;39;21127;31
2023/07/21 18:53:05;;;;;;;2.00;1.50;;;;;;;22.84;41.77;98808.75;7262367;40;20265;31
2023/07/21 18:58:39;;;;;;;2.30;1.55;;;;;;;22.77;42.34;98816.38;7232055;40;20272;31
2023/07/21 19:04:15;;;;;;;3.40;1.80;;;;;;;22.67;42.75;98829.94;7172582;40;20342;31
2023/07/21 19:09:47;;;;;;;2.28;1.58;;;;;;;22.61;43.22;98836.41;7189278;40;20320;31
2023/07/21 19:15:20;;;;;;;5.55;1.98;;;;;;;22.60;43.43;98837.53;7126470;40;20329;31
2023/07/21 19:20:56;;;;;;;2.50;1.77;;;;;;;22.55;43.40;98845.69;7203063;40;20352;31
2023/07/21 19:26:31;;;;;;;2.20;1.70;;;;;;;22.44;44.11;98855.69;7223867;40;20277;31
2023/07/21 19:32:03;;;;;;;5.32;1.70;;;;;;;22.36;44.70;98875.34;7234121;40;20260;31
2023/07/21 19:37:37;;;;;;;3.00;2.00;;;;;;;22.19;45.37;98882.75;7234444;40;20258;31
2023/07/21 19:43:09;;;;;;;1.87;1.70;;;;;;;22.06;46.14;98891.31;7210049;40;20347;31
2023/07/21 19:48:27;;;;;;;3.83;2.80;;;;;;;21.85;46.44;98893.66;7192334;40;20371;31
2023/07/21 19:54:00;;;;;;;2.10;1.75;;;;;;;21.64;46.25;98901.75;6995437;40;21382;31
2023/07/21 20:04:40;;;;;;;2.45;1.80;;;;;;;21.40;47.09;98910.09;7216848;40;21055;31
2023/07/21 20:10:13;;;;;;;2.90;2.60;;;;;;;21.29;46.96;98913.69;7225459;40;20284;31
2023/07/21 20:20:49;;;;;;;3.75;1.90;;;;;;;21.03;48.93;98936.09;7210233;40;20274;31
2023/07/21 20:26:22;;;;;;;5.07;1.67;;;;;;;20.95;47.93;98936.47;7224862;40;21021;31
2023/07/21 20:31:39;;;;;;;2.07;1.70;;;;;;;20.91;48.23;98940.78;7251062;40;20274;31
2023/07/21 20:42:20;;;;;;;2.20;1.80;;;;;;;20.60;48.79;98959.22;7244105;40;20442;31
2023/07/21 20:52:59;;;;;;;4.45;1.70;;;;;;;20.24;50.58;98970.31;7305281;39;20279;31
2023/07/21 20:58:35;;;;;;;2.55;1.90;;;;;;;20.13;51.67;98980.19;7271639;40;20432;31
2023/07/21 21:04:08;;;;;;;3.85;1.90;;;;;;;19.92;51.29;98983.41;7259691;40;20335;31
2023/07/21 21:09:42;;;;;;;2.53;1.77;;;;;;;19.83;51.54;98990.31;7193993;40;20247;31
2023/07/21 21:15:19;;;;;;;4.65;1.98;;;;;;;19.76;51.53;98998.59;7173301;40;20247;31
2023/07/21 21:20:51;;;;;;;3.93;2.10;;;;;;;19.54;52.40;99007.50;7132722;40;20259;31
2023/07/21 21:26:12;;;;;;;4.40;2.27;;;;;;;19.64;51.67;99025.06;7136703;40;20380;31
2023/07/21 21:31:47;;;;;;;4.12;1.75;;;;;;;19.85;50.59;99017.41;7173374;40;20257;31
2023/07/21 21:37:22;;;;;;;3.58;2.00;;;;;;;19.99;50.52;99019.75;7143522;40;21534;31
2023/07/21 21:48:02;;;;;;;5.63;2.40;;;;;;;19.93;49.71;99033.50;7125194;40;20391;31
2023/07/21 21:53:23;;;;;;;2.73;1.80;;;;;;;19.93;50.28;99038.97;7227711;40;20365;31
2023/07/21 21:58:40;;;;;;;2.63;1.90;;;;;;;19.96;50.56;99041.28;7276484;40;20268;31
2023/07/21 22:04:15;;;;;;;5.87;2.30;;;;;;;19.62;51.74;99045.47;7275379;40;20474;31
2023/07/21 22:09:51;;;;;;;2.95;2.40;;;;;;;19.58;51.74;99047.00;7234248;40;20261;31
2023/07/21 22:15:12;;;;;;;2.97;2.30;;;;;;;19.32;52.69;99048.09;7193717;40;20269;31
2023/07/21 22:20:45;;;;;;;3.50;2.35;;;;;;;19.18;52.91;99041.09;7187258;40;20250;31
2023/07/21 22:26:20;;;;;;;2.40;2.20;;;;;;;19.08;52.52;99048.97;7124785;40;20297;31
2023/07/21 22:31:53;;;;;;;4.03;2.13;;;;;;;19.05;52.56;99044.78;7139307;40;20251;31
2023/07/21 22:37:28;;;;;;;2.97;2.23;;;;;;;19.05;53.29;99046.69;7193674;40;20277;31
2023/07/21 22:43:03;;;;;;;3.07;2.07;;;;;;;18.66;54.41;99054.16;7145292;40;21288;31
2023/07/21 22:48:38;;;;;;;2.53;2.17;;;;;;;18.59;54.06;99064.31;7140600;40;20254;31
2023/07/21 22:54:11;;;;;;;3.33;2.27;;;;;;;18.63;54.40;99068.28;7195953;40;20242;31
2023/07/21 22:59:29;;;;;;;5.17;2.30;;;;;;;18.73;53.43;99068.63;7253935;40;20261;31
2023/07/21 23:04:47;;;;;;;3.45;1.80;;;;;;;18.80;53.64;99071.28;7242603;40;20249;31
2023/07/21 23:10:20;;;;;;;2.63;2.23;;;;;;;18.74;53.31;99066.69;7262886;40;20259;31
2023/07/21 23:15:37;;;;;;;4.00;2.20;;;;;;;18.61;54.61;99062.19;7301719;39;21465;31
2023/07/21 23:21:09;;;;;;;2.65;2.40;;;;;;;18.51;54.56;99061.81;7294123;39;20423;31
2023/07/21 23:26:45;;;;;;;3.20;2.57;;;;;;;18.51;55.28;99059.09;7256075;40;20350;31
2023/07/21 23:32:17;;;;;;;3.87;2.33;;;;;;;18.24;55.52;99063.03;7214167;40;22175;31
2023/07/21 23:37:35;;;;;;;3.70;2.83;;;;;;;18.14;56.11;99054.50;7194264;40;20262;31
2023/07/21 23:43:11;;;;;;;3.90;2.40;;;;;;;17.83;58.30;99060.72;7184135;40;20316;31
2023/07/21 23:48:31;;;;;;;2.50;2.10;;;;;;;17.80;58.34;99069.34;7217241;40;20258;31
2023/07/21 23:53:48;;;;;;;3.07;2.77;;;;;;;17.94;57.29;99068.25;7282387;40;20264;31
2023/07/21 23:59:24;;;;;;;5.17;4.10;;;;;;;18.17;57.49;99070.41;7293271;39;20287;31
